sensor_id;sensor_type;location;lat;lon;timestamp;pressure;altitude;pressure_sealevel;temperature;humidity
3260;BME280;22469;48.150;14.004;2022-10-16T00:01:43;98100.31;;;17.33;75.26
3260;BME280;22469;48.150;14.004;2022-10-16T00:04:10;98112.44;;;17.33;75.75
3260;BME280;22469;48.150;14.004;2022-10-16T00:06:37;98117.56;;;17.34;75.84
3260;BME280;22469;48.150;14.004;2022-10-16T00:09:05;98114.97;;;17.34;75.43
3260;BME280;22469;48.150;14.004;2022-10-16T00:11:34;98117.44;;;17.36;75.80
3260;BME280;22469;48.150;14.004;2022-10-16T00:14:11;98123.28;;;17.39;75.47
3260;BME280;22469;48.150;14.004;2022-10-16T00:16:40;98126.22;;;17.33;75.24
3260;BME280;22469;48.150;14.004;2022-10-16T00:19:09;98126.06;;;17.36;75.52
3260;BME280;22469;48.150;14.004;2022-10-16T00:21:37;98121.03;;;17.33;75.45
3260;BME280;22469;48.150;14.004;2022-10-16T00:24:07;98125.34;;;17.34;74.89
3260;BME280;22469;48.150;14.004;2022-10-16T00:26:37;98125.50;;;17.31;75.53
3260;BME280;22469;48.150;14.004;2022-10-16T00:29:07;98129.84;;;17.31;75.11
3260;BME280;22469;48.150;14.004;2022-10-16T00:31:34;98129.03;;;17.30;75.22
3260;BME280;22469;48.150;14.004;2022-10-16T00:34:02;98125.50;;;17.31;75.29
3260;BME280;22469;48.150;14.004;2022-10-16T00:36:29;98122.91;;;17.31;75.27
3260;BME280;22469;48.150;14.004;2022-10-16T00:38:57;98123.84;;;17.30;75.71
3260;BME280;22469;48.150;14.004;2022-10-16T00:41:32;98119.66;;;17.27;75.67
3260;BME280;22469;48.150;14.004;2022-10-16T00:44:03;98120.38;;;17.29;75.53
3260;BME280;22469;48.150;14.004;2022-10-16T00:46:41;98125.69;;;17.28;75.50
3260;BME280;22469;48.150;14.004;2022-10-16T00:49:15;98133.63;;;17.25;75.70
3260;BME280;22469;48.150;14.004;2022-10-16T00:51:49;98139.56;;;17.27;75.44
3260;BME280;22469;48.150;14.004;2022-10-16T00:54:21;98136.31;;;17.23;75.71
3260;BME280;22469;48.150;14.004;2022-10-16T00:56:50;98140.66;;;17.23;75.97
3260;BME280;22469;48.150;14.004;2022-10-16T00:59:22;98134.91;;;17.18;75.75
3260;BME280;22469;48.150;14.004;2022-10-16T01:01:52;98145.38;;;17.16;75.66
3260;BME280;22469;48.150;14.004;2022-10-16T01:04:21;98140.25;;;17.15;75.87
3260;BME280;22469;48.150;14.004;2022-10-16T01:07:14;98133.31;;;17.15;75.41
3260;BME280;22469;48.150;14.004;2022-10-16T01:09:54;98147.47;;;17.10;75.79
3260;BME280;22469;48.150;14.004;2022-10-16T01:12:41;98137.16;;;17.08;75.94
3260;BME280;22469;48.150;14.004;2022-10-16T01:21:13;98146.88;;;17.04;75.68
3260;BME280;22469;48.150;14.004;2022-10-16T01:24:06;98158.91;;;17.05;75.81
3260;BME280;22469;48.150;14.004;2022-10-16T01:29:30;98158.25;;;17.02;75.91
3260;BME280;22469;48.150;14.004;2022-10-16T01:32:10;98159.78;;;17.06;75.95
3260;BME280;22469;48.150;14.004;2022-10-16T01:34:51;98158.91;;;17.05;76.37
3260;BME280;22469;48.150;14.004;2022-10-16T01:37:27;98159.84;;;17.04;76.01
3260;BME280;22469;48.150;14.004;2022-10-16T01:40:05;98149.31;;;17.08;76.22
3260;BME280;22469;48.150;14.004;2022-10-16T01:42:48;98148.63;;;17.04;76.41
3260;BME280;22469;48.150;14.004;2022-10-16T01:45:19;98150.56;;;17.00;76.57
3260;BME280;22469;48.150;14.004;2022-10-16T01:47:47;98152.41;;;16.98;76.45
3260;BME280;22469;48.150;14.004;2022-10-16T01:50:18;98151.66;;;16.96;76.04
3260;BME280;22469;48.150;14.004;2022-10-16T01:52:49;98156.19;;;16.93;76.10
3260;BME280;22469;48.150;14.004;2022-10-16T01:55:31;98162.38;;;16.90;75.99
3260;BME280;22469;48.150;14.004;2022-10-16T01:58:01;98159.84;;;16.89;76.29
3260;BME280;22469;48.150;14.004;2022-10-16T02:00:30;98159.00;;;16.88;75.99
3260;BME280;22469;48.150;14.004;2022-10-16T02:02:59;98150.50;;;16.86;75.84
3260;BME280;22469;48.150;14.004;2022-10-16T02:08:05;98163.13;;;16.76;75.45
3260;BME280;22469;48.150;14.004;2022-10-16T02:10:32;98167.47;;;16.76;75.55
3260;BME280;22469;48.150;14.004;2022-10-16T02:13:10;98163.94;;;16.77;75.40
3260;BME280;22469;48.150;14.004;2022-10-16T02:15:44;98150.31;;;16.73;75.96
3260;BME280;22469;48.150;14.004;2022-10-16T02:18:11;98155.59;;;16.72;76.01
3260;BME280;22469;48.150;14.004;2022-10-16T02:20:55;98163.94;;;16.77;75.78
3260;BME280;22469;48.150;14.004;2022-10-16T02:23:50;98169.13;;;16.77;75.69
3260;BME280;22469;48.150;14.004;2022-10-16T02:26:29;98175.06;;;16.79;75.68
3260;BME280;22469;48.150;14.004;2022-10-16T02:29:24;98170.78;;;16.78;76.13
3260;BME280;22469;48.150;14.004;2022-10-16T02:31:56;98169.13;;;16.77;76.65
3260;BME280;22469;48.150;14.004;2022-10-16T02:34:28;98174.41;;;16.75;75.96
3260;BME280;22469;48.150;14.004;2022-10-16T02:36:58;98173.63;;;16.73;75.91
3260;BME280;22469;48.150;14.004;2022-10-16T02:39:28;98176.31;;;16.72;75.88
3260;BME280;22469;48.150;14.004;2022-10-16T02:41:56;98177.19;;;16.71;75.68
3260;BME280;22469;48.150;14.004;2022-10-16T02:44:23;98179.06;;;16.69;75.65
3260;BME280;22469;48.150;14.004;2022-10-16T02:46:50;98174.78;;;16.68;76.00
3260;BME280;22469;48.150;14.004;2022-10-16T02:49:17;98184.41;;;16.66;75.66
3260;BME280;22469;48.150;14.004;2022-10-16T02:51:45;98186.22;;;16.64;75.73
3260;BME280;22469;48.150;14.004;2022-10-16T02:54:12;98195.66;;;16.65;75.23
3260;BME280;22469;48.150;14.004;2022-10-16T02:56:39;98205.13;;;16.66;76.01
3260;BME280;22469;48.150;14.004;2022-10-16T02:59:06;98208.59;;;16.65;75.93
3260;BME280;22469;48.150;14.004;2022-10-16T03:01:33;98215.63;;;16.63;76.10
3260;BME280;22469;48.150;14.004;2022-10-16T03:04:02;98214.72;;;16.64;76.22
3260;BME280;22469;48.150;14.004;2022-10-16T03:06:29;98217.41;;;16.62;75.61
3260;BME280;22469;48.150;14.004;2022-10-16T03:08:56;98214.81;;;16.62;75.86
3260;BME280;22469;48.150;14.004;2022-10-16T03:11:23;98217.47;;;16.61;76.38
3260;BME280;22469;48.150;14.004;2022-10-16T03:13:50;98222.63;;;16.61;76.33
3260;BME280;22469;48.150;14.004;2022-10-16T03:16:17;98227.09;;;16.58;76.42
3260;BME280;22469;48.150;14.004;2022-10-16T03:18:48;98221.81;;;16.60;76.50
3260;BME280;22469;48.150;14.004;2022-10-16T03:21:16;98228.59;;;16.63;75.86
3260;BME280;22469;48.150;14.004;2022-10-16T03:23:43;98216.47;;;16.63;76.03
3260;BME280;22469;48.150;14.004;2022-10-16T03:26:10;98213.03;;;16.63;75.86
3260;BME280;22469;48.150;14.004;2022-10-16T03:28:37;98212.28;;;16.61;76.12
3260;BME280;22469;48.150;14.004;2022-10-16T03:31:04;98209.78;;;16.59;76.31
3260;BME280;22469;48.150;14.004;2022-10-16T03:33:31;98217.63;;;16.57;76.17
3260;BME280;22469;48.150;14.004;2022-10-16T03:35:58;98217.72;;;16.56;76.11
3260;BME280;22469;48.150;14.004;2022-10-16T03:38:25;98221.13;;;16.56;76.35
3260;BME280;22469;48.150;14.004;2022-10-16T03:40:52;98221.03;;;16.58;76.32
3260;BME280;22469;48.150;14.004;2022-10-16T03:43:19;98218.53;;;16.56;76.64
3260;BME280;22469;48.150;14.004;2022-10-16T03:45:46;98219.38;;;16.57;76.57
3260;BME280;22469;48.150;14.004;2022-10-16T03:48:13;98227.41;;;16.52;76.46
3260;BME280;22469;48.150;14.004;2022-10-16T03:50:40;98223.81;;;16.55;76.39
3260;BME280;22469;48.150;14.004;2022-10-16T03:53:07;98227.25;;;16.55;76.53
3260;BME280;22469;48.150;14.004;2022-10-16T03:55:35;98239.16;;;16.58;76.42
3260;BME280;22469;48.150;14.004;2022-10-16T03:58:02;98239.94;;;16.60;76.55
3260;BME280;22469;48.150;14.004;2022-10-16T04:00:29;98243.34;;;16.61;75.89
3260;BME280;22469;48.150;14.004;2022-10-16T04:02:56;98239.78;;;16.63;76.01
3260;BME280;22469;48.150;14.004;2022-10-16T04:05:23;98252.13;;;16.58;75.88
3260;BME280;22469;48.150;14.004;2022-10-16T04:07:49;98247.88;;;16.57;76.21
3260;BME280;22469;48.150;14.004;2022-10-16T04:10:16;98256.47;;;16.57;76.16
3260;BME280;22469;48.150;14.004;2022-10-16T04:12:44;98259.88;;;16.58;75.92
3260;BME280;22469;48.150;14.004;2022-10-16T04:15:11;98265.25;;;16.55;75.85
3260;BME280;22469;48.150;14.004;2022-10-16T04:17:38;98275.00;;;16.50;75.67
3260;BME280;22469;48.150;14.004;2022-10-16T04:20:05;98274.41;;;16.45;75.92
3260;BME280;22469;48.150;14.004;2022-10-16T04:22:33;98284.63;;;16.48;75.97
3260;BME280;22469;48.150;14.004;2022-10-16T04:25:00;98277.75;;;16.47;75.73
3260;BME280;22469;48.150;14.004;2022-10-16T04:27:27;98271.72;;;16.46;75.70
3260;BME280;22469;48.150;14.004;2022-10-16T04:29:55;98269.06;;;16.48;75.76
3260;BME280;22469;48.150;14.004;2022-10-16T04:32:22;98254.44;;;16.47;75.80
3260;BME280;22469;48.150;14.004;2022-10-16T04:34:49;98241.59;;;16.45;75.96
3260;BME280;22469;48.150;14.004;2022-10-16T04:37:16;98242.31;;;16.47;75.85
3260;BME280;22469;48.150;14.004;2022-10-16T04:39:43;98247.50;;;16.47;75.60
3260;BME280;22469;48.150;14.004;2022-10-16T04:42:10;98252.78;;;16.46;75.79
3260;BME280;22469;48.150;14.004;2022-10-16T04:44:38;98257.84;;;16.47;75.91
3260;BME280;22469;48.150;14.004;2022-10-16T04:47:05;98253.69;;;16.45;75.73
3260;BME280;22469;48.150;14.004;2022-10-16T04:49:31;98256.50;;;16.40;75.03
3260;BME280;22469;48.150;14.004;2022-10-16T04:51:58;98249.75;;;16.38;75.26
3260;BME280;22469;48.150;14.004;2022-10-16T04:54:25;98264.38;;;16.39;75.21
3260;BME280;22469;48.150;14.004;2022-10-16T04:56:52;98260.84;;;16.40;75.50
3260;BME280;22469;48.150;14.004;2022-10-16T04:59:21;98264.53;;;16.35;75.13
3260;BME280;22469;48.150;14.004;2022-10-16T05:01:49;98262.09;;;16.32;75.02
3260;BME280;22469;48.150;14.004;2022-10-16T05:04:17;98270.84;;;16.30;75.03
3260;BME280;22469;48.150;14.004;2022-10-16T05:06:44;98275.19;;;16.29;75.08
3260;BME280;22469;48.150;14.004;2022-10-16T05:09:11;98282.03;;;16.30;75.08
3260;BME280;22469;48.150;14.004;2022-10-16T05:11:38;98284.56;;;16.32;74.92
3260;BME280;22469;48.150;14.004;2022-10-16T05:14:04;98287.13;;;16.32;74.87
3260;BME280;22469;48.150;14.004;2022-10-16T05:16:31;98282.94;;;16.29;75.56
3260;BME280;22469;48.150;14.004;2022-10-16T05:18:59;98287.28;;;16.29;75.18
3260;BME280;22469;48.150;14.004;2022-10-16T05:21:45;98279.00;;;16.22;74.99
3260;BME280;22469;48.150;14.004;2022-10-16T05:24:12;98284.25;;;16.21;74.76
3260;BME280;22469;48.150;14.004;2022-10-16T05:26:40;98295.44;;;16.21;75.09
3260;BME280;22469;48.150;14.004;2022-10-16T05:29:07;98304.97;;;16.21;75.03
3260;BME280;22469;48.150;14.004;2022-10-16T05:31:36;98309.38;;;16.19;75.04
3260;BME280;22469;48.150;14.004;2022-10-16T05:34:03;98308.44;;;16.20;74.83
3260;BME280;22469;48.150;14.004;2022-10-16T05:36:29;98304.34;;;16.16;75.07
3260;BME280;22469;48.150;14.004;2022-10-16T05:38:56;98304.97;;;16.21;75.03
3260;BME280;22469;48.150;14.004;2022-10-16T05:41:23;98292.88;;;16.21;75.10
3260;BME280;22469;48.150;14.004;2022-10-16T05:43:53;98306.63;;;16.22;75.13
3260;BME280;22469;48.150;14.004;2022-10-16T05:46:20;98307.47;;;16.22;75.80
3260;BME280;22469;48.150;14.004;2022-10-16T05:48:47;98313.47;;;16.23;75.79
3260;BME280;22469;48.150;14.004;2022-10-16T05:51:14;98306.63;;;16.22;75.58
3260;BME280;22469;48.150;14.004;2022-10-16T05:53:42;98297.28;;;16.19;75.53
3260;BME280;22469;48.150;14.004;2022-10-16T05:56:11;98311.97;;;16.19;75.36
3260;BME280;22469;48.150;14.004;2022-10-16T05:58:40;98311.03;;;16.20;75.53
3260;BME280;22469;48.150;14.004;2022-10-16T06:01:11;98310.88;;;16.23;75.21
3260;BME280;22469;48.150;14.004;2022-10-16T06:03:39;98314.41;;;16.22;75.13
3260;BME280;22469;48.150;14.004;2022-10-16T06:06:11;98309.22;;;16.22;75.35
3260;BME280;22469;48.150;14.004;2022-10-16T06:08:41;98311.03;;;16.20;75.55
3260;BME280;22469;48.150;14.004;2022-10-16T06:11:15;98324.22;;;16.15;75.20
3260;BME280;22469;48.150;14.004;2022-10-16T06:13:43;98323.00;;;16.05;75.50
3260;BME280;22469;48.150;14.004;2022-10-16T06:16:13;98333.19;;;16.08;75.52
3260;BME280;22469;48.150;14.004;2022-10-16T06:18:40;98343.41;;;16.11;75.82
3260;BME280;22469;48.150;14.004;2022-10-16T06:21:21;98349.28;;;16.15;75.89
3260;BME280;22469;48.150;14.004;2022-10-16T06:23:54;98355.41;;;16.12;76.12
3260;BME280;22469;48.150;14.004;2022-10-16T06:26:24;98349.28;;;16.15;76.35
3260;BME280;22469;48.150;14.004;2022-10-16T06:28:56;98345.84;;;16.14;76.07
3260;BME280;22469;48.150;14.004;2022-10-16T06:31:26;98345.91;;;16.13;76.29
3260;BME280;22469;48.150;14.004;2022-10-16T06:33:55;98354.50;;;16.13;76.22
3260;BME280;22469;48.150;14.004;2022-10-16T06:36:24;98363.88;;;16.16;76.41
3260;BME280;22469;48.150;14.004;2022-10-16T06:38:52;98364.72;;;16.16;76.07
3260;BME280;22469;48.150;14.004;2022-10-16T06:41:21;98374.22;;;16.16;76.18
3260;BME280;22469;48.150;14.004;2022-10-16T06:43:49;98366.22;;;16.20;76.01
3260;BME280;22469;48.150;14.004;2022-10-16T06:46:19;98370.50;;;16.21;76.37
3260;BME280;22469;48.150;14.004;2022-10-16T06:48:48;98369.44;;;16.25;76.44
3260;BME280;22469;48.150;14.004;2022-10-16T06:51:18;98370.03;;;16.30;76.16
3260;BME280;22469;48.150;14.004;2022-10-16T06:53:48;98381.16;;;16.32;76.09
3260;BME280;22469;48.150;14.004;2022-10-16T06:56:30;98382.25;;;16.28;75.52
3260;BME280;22469;48.150;14.004;2022-10-16T06:58:59;98371.94;;;16.27;76.13
3260;BME280;22469;48.150;14.004;2022-10-16T07:01:26;98368.53;;;16.26;75.73
3260;BME280;22469;48.150;14.004;2022-10-16T07:03:54;98368.66;;;16.23;76.12
3260;BME280;22469;48.150;14.004;2022-10-16T07:06:22;98368.66;;;16.23;76.37
3260;BME280;22469;48.150;14.004;2022-10-16T07:08:51;98375.22;;;16.30;76.80
3260;BME280;22469;48.150;14.004;2022-10-16T07:11:21;98375.84;;;16.35;76.13
3260;BME280;22469;48.150;14.004;2022-10-16T07:13:50;98376.63;;;16.38;76.43
3260;BME280;22469;48.150;14.004;2022-10-16T07:16:29;98384.06;;;16.44;76.50
3260;BME280;22469;48.150;14.004;2022-10-16T07:19:00;98381.41;;;16.45;76.01
3260;BME280;22469;48.150;14.004;2022-10-16T07:21:31;98392.34;;;16.50;75.80
3260;BME280;22469;48.150;14.004;2022-10-16T07:24:05;98405.16;;;16.53;75.73
3260;BME280;22469;48.150;14.004;2022-10-16T07:26:35;98397.38;;;16.53;75.90
3260;BME280;22469;48.150;14.004;2022-10-16T07:29:03;98406.75;;;16.56;75.67
3260;BME280;22469;48.150;14.004;2022-10-16T07:31:30;98407.34;;;16.61;75.98
3260;BME280;22469;48.150;14.004;2022-10-16T07:33:59;98406.22;;;16.67;76.47
3260;BME280;22469;48.150;14.004;2022-10-16T07:36:27;98409.44;;;16.72;76.24
3260;BME280;22469;48.150;14.004;2022-10-16T07:38:54;98401.56;;;16.73;76.47
3260;BME280;22469;48.150;14.004;2022-10-16T07:41:26;98400.69;;;16.74;76.44
3260;BME280;22469;48.150;14.004;2022-10-16T07:43:54;98401.06;;;16.84;76.69
3260;BME280;22469;48.150;14.004;2022-10-16T07:46:23;98396.09;;;16.97;76.90
3260;BME280;22469;48.150;14.004;2022-10-16T07:48:50;98398.44;;;17.01;76.04
3260;BME280;22469;48.150;14.004;2022-10-16T07:51:20;98395.38;;;17.11;76.36
3260;BME280;22469;48.150;14.004;2022-10-16T07:53:49;98399.41;;;17.16;75.97
3260;BME280;22469;48.150;14.004;2022-10-16T07:56:18;98402.66;;;17.20;76.06
3260;BME280;22469;48.150;14.004;2022-10-16T07:58:47;98408.69;;;17.20;75.38
3260;BME280;22469;48.150;14.004;2022-10-16T08:01:16;98406.69;;;17.25;75.51
3260;BME280;22469;48.150;14.004;2022-10-16T08:03:47;98400.91;;;17.36;75.48
3260;BME280;22469;48.150;14.004;2022-10-16T08:06:17;98402.78;;;17.34;75.05
3260;BME280;22469;48.150;14.004;2022-10-16T08:08:50;98399.94;;;17.39;75.21
3260;BME280;22469;48.150;14.004;2022-10-16T08:11:17;98398.00;;;17.42;74.85
3260;BME280;22469;48.150;14.004;2022-10-16T08:13:44;98399.50;;;17.46;74.68
3260;BME280;22469;48.150;14.004;2022-10-16T08:16:11;98405.31;;;17.51;74.71
3260;BME280;22469;48.150;14.004;2022-10-16T08:18:39;98402.88;;;17.48;74.50
3260;BME280;22469;48.150;14.004;2022-10-16T08:21:12;98399.84;;;17.56;74.54
3260;BME280;22469;48.150;14.004;2022-10-16T08:23:46;98402.28;;;17.59;75.21
3260;BME280;22469;48.150;14.004;2022-10-16T08:26:22;98402.69;;;17.67;75.35
3260;BME280;22469;48.150;14.004;2022-10-16T08:28:50;98412.69;;;17.75;75.15
3260;BME280;22469;48.150;14.004;2022-10-16T08:31:18;98423.22;;;17.88;75.08
3260;BME280;22469;48.150;14.004;2022-10-16T08:33:45;98423.16;;;17.89;74.55
3260;BME280;22469;48.150;14.004;2022-10-16T08:36:14;98424.94;;;17.89;74.03
3260;BME280;22469;48.150;14.004;2022-10-16T08:38:42;98418.63;;;17.93;74.25
3260;BME280;22469;48.150;14.004;2022-10-16T08:47:26;98430.03;;;17.90;73.75
3260;BME280;22469;48.150;14.004;2022-10-16T08:50:11;98435.16;;;17.92;74.52
3260;BME280;22469;48.150;14.004;2022-10-16T08:52:42;98435.38;;;18.03;73.78
3260;BME280;22469;48.150;14.004;2022-10-16T08:55:43;98428.91;;;18.10;74.68
3260;BME280;22469;48.150;14.004;2022-10-16T08:58:26;98425.06;;;18.17;73.95
3260;BME280;22469;48.150;14.004;2022-10-16T09:01:03;98417.69;;;18.26;74.80
3260;BME280;22469;48.150;14.004;2022-10-16T09:07:04;98427.16;;;18.57;73.38
3260;BME280;22469;48.150;14.004;2022-10-16T09:12:38;98422.31;;;18.81;72.37
3260;BME280;22469;48.150;14.004;2022-10-16T09:15:34;98421.75;;;18.90;71.02
3260;BME280;22469;48.150;14.004;2022-10-16T09:21:18;98436.38;;;19.21;70.11
3260;BME280;22469;48.150;14.004;2022-10-16T09:23:49;98438.88;;;19.23;70.26
3260;BME280;22469;48.150;14.004;2022-10-16T09:26:17;98435.25;;;19.39;69.67
3260;BME280;22469;48.150;14.004;2022-10-16T09:28:46;98434.59;;;19.50;69.63
3260;BME280;22469;48.150;14.004;2022-10-16T09:31:18;98441.41;;;19.67;69.76
3260;BME280;22469;48.150;14.004;2022-10-16T09:33:51;98444.47;;;19.74;68.88
3260;BME280;22469;48.150;14.004;2022-10-16T09:36:22;98444.94;;;19.66;67.81
3260;BME280;22469;48.150;14.004;2022-10-16T09:39:04;98429.97;;;19.70;67.83
3260;BME280;22469;48.150;14.004;2022-10-16T09:41:35;98435.97;;;19.84;68.26
3260;BME280;22469;48.150;14.004;2022-10-16T09:44:40;98436.88;;;19.98;68.55
3260;BME280;22469;48.150;14.004;2022-10-16T09:47:24;98437.66;;;20.12;67.59
3260;BME280;22469;48.150;14.004;2022-10-16T09:50:02;98437.78;;;20.24;66.86
3260;BME280;22469;48.150;14.004;2022-10-16T09:52:33;98449.97;;;20.38;66.78
3260;BME280;22469;48.150;14.004;2022-10-16T09:55:14;98447.56;;;20.47;65.98
3260;BME280;22469;48.150;14.004;2022-10-16T09:57:52;98444.44;;;20.69;65.89
3260;BME280;22469;48.150;14.004;2022-10-16T10:00:22;98433.59;;;20.88;65.88
3260;BME280;22469;48.150;14.004;2022-10-16T10:02:50;98436.34;;;20.99;64.83
3260;BME280;22469;48.150;14.004;2022-10-16T10:05:24;98437.66;;;21.18;63.84
3260;BME280;22469;48.150;14.004;2022-10-16T10:07:56;98434.44;;;21.27;64.39
3260;BME280;22469;48.150;14.004;2022-10-16T10:10:28;98421.50;;;21.38;64.28
3260;BME280;22469;48.150;14.004;2022-10-16T10:12:57;98435.16;;;21.55;63.29
3260;BME280;22469;48.150;14.004;2022-10-16T10:15:28;98434.50;;;21.64;62.57
3260;BME280;22469;48.150;14.004;2022-10-16T10:18:00;98426.38;;;21.68;62.35
3260;BME280;22469;48.150;14.004;2022-10-16T10:20:32;98433.94;;;21.84;61.48
3260;BME280;22469;48.150;14.004;2022-10-16T10:23:01;98433.84;;;21.86;61.21
3260;BME280;22469;48.150;14.004;2022-10-16T10:32:00;98420.72;;;21.98;62.46
3260;BME280;22469;48.150;14.004;2022-10-16T10:40:30;98404.72;;;22.27;61.10
3260;BME280;22469;48.150;14.004;2022-10-16T10:43:35;98403.75;;;22.52;61.70
3260;BME280;22469;48.150;14.004;2022-10-16T10:46:35;98400.09;;;22.66;60.61
3260;BME280;22469;48.150;14.004;2022-10-16T11:06:57;98412.81;;;23.06;59.15
3260;BME280;22469;48.150;14.004;2022-10-16T11:09:40;98411.38;;;23.13;59.55
3260;BME280;22469;48.150;14.004;2022-10-16T11:12:20;98414.13;;;23.23;59.11
3260;BME280;22469;48.150;14.004;2022-10-16T11:15:18;98410.81;;;23.32;58.67
3260;BME280;22469;48.150;14.004;2022-10-16T11:17:53;98402.25;;;23.18;58.87
3260;BME280;22469;48.150;14.004;2022-10-16T11:20:28;98399.38;;;23.22;59.24
3260;BME280;22469;48.150;14.004;2022-10-16T11:25:50;98392.22;;;23.24;59.46
3260;BME280;22469;48.150;14.004;2022-10-16T11:28:55;98397.22;;;23.38;58.28
3260;BME280;22469;48.150;14.004;2022-10-16T11:31:57;98392.59;;;23.30;58.11
3260;BME280;22469;48.150;14.004;2022-10-16T11:37:12;98406.63;;;23.40;57.49
3260;BME280;22469;48.150;14.004;2022-10-16T11:39:56;98392.69;;;23.40;57.48
3260;BME280;22469;48.150;14.004;2022-10-16T11:42:33;98391.03;;;23.39;57.32
3260;BME280;22469;48.150;14.004;2022-10-16T11:45:29;98387.47;;;23.40;57.50
3260;BME280;22469;48.150;14.004;2022-10-16T11:50:53;98385.56;;;23.31;58.85
3260;BME280;22469;48.150;14.004;2022-10-16T11:56:14;98373.78;;;23.03;59.80
3260;BME280;22469;48.150;14.004;2022-10-16T11:59:06;98381.06;;;23.22;60.35
3260;BME280;22469;48.150;14.004;2022-10-16T12:01:46;98383.78;;;23.31;59.29
3260;BME280;22469;48.150;14.004;2022-10-16T12:04:36;98374.72;;;23.47;58.26
3260;BME280;22469;48.150;14.004;2022-10-16T12:07:16;98371.50;;;23.54;59.07
3260;BME280;22469;48.150;14.004;2022-10-16T12:09:46;98367.66;;;23.58;57.69
3260;BME280;22469;48.150;14.004;2022-10-16T12:15:30;98377.66;;;23.64;57.90
3260;BME280;22469;48.150;14.004;2022-10-16T12:18:24;98365.78;;;23.72;58.84
3260;BME280;22469;48.150;14.004;2022-10-16T12:20:56;98375.91;;;23.76;58.59
3260;BME280;22469;48.150;14.004;2022-10-16T12:23:36;98373.38;;;23.63;57.70
3260;BME280;22469;48.150;14.004;2022-10-16T12:26:05;98369.59;;;23.68;57.77
3260;BME280;22469;48.150;14.004;2022-10-16T12:28:33;98364.94;;;23.71;57.22
3260;BME280;22469;48.150;14.004;2022-10-16T12:31:05;98365.66;;;23.73;58.18
3260;BME280;22469;48.150;14.004;2022-10-16T12:33:36;98371.34;;;23.78;57.97
3260;BME280;22469;48.150;14.004;2022-10-16T12:36:33;98364.22;;;23.80;58.42
3260;BME280;22469;48.150;14.004;2022-10-16T12:39:01;98367.66;;;23.81;57.68
3260;BME280;22469;48.150;14.004;2022-10-16T12:41:35;98366.84;;;23.80;57.73
3260;BME280;22469;48.150;14.004;2022-10-16T12:44:23;98370.88;;;23.84;57.32
3260;BME280;22469;48.150;14.004;2022-10-16T12:46:50;98369.66;;;23.88;57.21
3260;BME280;22469;48.150;14.004;2022-10-16T12:49:22;98364.41;;;23.88;56.91
3260;BME280;22469;48.150;14.004;2022-10-16T12:51:56;98369.66;;;23.88;56.73
3260;BME280;22469;48.150;14.004;2022-10-16T12:54:31;98371.78;;;23.95;57.00
3260;BME280;22469;48.150;14.004;2022-10-16T13:00:13;98374.34;;;24.06;57.45
3260;BME280;22469;48.150;14.004;2022-10-16T13:23:38;98370.94;;;24.26;55.57
3260;BME280;22469;48.150;14.004;2022-10-16T13:26:22;98362.75;;;24.20;55.58
3260;BME280;22469;48.150;14.004;2022-10-16T13:29:06;98363.31;;;24.23;55.70
3260;BME280;22469;48.150;14.004;2022-10-16T13:31:33;98360.34;;;24.28;55.61
3260;BME280;22469;48.150;14.004;2022-10-16T13:34:01;98369.91;;;24.18;55.57
3260;BME280;22469;48.150;14.004;2022-10-16T13:36:50;98371.41;;;24.31;55.50
3260;BME280;22469;48.150;14.004;2022-10-16T13:39:25;98373.06;;;24.32;55.89
3260;BME280;22469;48.150;14.004;2022-10-16T13:42:04;98380.53;;;24.37;55.12
3260;BME280;22469;48.150;14.004;2022-10-16T13:44:42;98385.59;;;24.29;55.68
3260;BME280;22469;48.150;14.004;2022-10-16T13:47:23;98386.97;;;24.44;55.56
3260;BME280;22469;48.150;14.004;2022-10-16T13:52:38;98393.09;;;24.54;54.73
3260;BME280;22469;48.150;14.004;2022-10-16T13:55:17;98396.31;;;24.58;54.42
3260;BME280;22469;48.150;14.004;2022-10-16T13:57:45;98398.94;;;24.58;54.84
3260;BME280;22469;48.150;14.004;2022-10-16T14:00:22;98396.63;;;24.65;54.73
3260;BME280;22469;48.150;14.004;2022-10-16T14:02:55;98394.41;;;24.60;54.65
3260;BME280;22469;48.150;14.004;2022-10-16T14:05:25;98397.16;;;24.58;54.49
3260;BME280;22469;48.150;14.004;2022-10-16T14:07:53;98402.41;;;24.58;54.86
3260;BME280;22469;48.150;14.004;2022-10-16T14:10:25;98402.16;;;24.62;54.46
3260;BME280;22469;48.150;14.004;2022-10-16T14:12:59;98399.25;;;24.65;53.96
3260;BME280;22469;48.150;14.004;2022-10-16T14:15:30;98395.28;;;24.70;54.28
3260;BME280;22469;48.150;14.004;2022-10-16T14:17:59;98401.03;;;24.64;54.96
3260;BME280;22469;48.150;14.004;2022-10-16T14:20:28;98386.72;;;24.68;55.03
3260;BME280;22469;48.150;14.004;2022-10-16T14:25:32;98387.34;;;24.81;54.79
3260;BME280;22469;48.150;14.004;2022-10-16T14:30:36;98396.25;;;24.90;54.30
3260;BME280;22469;48.150;14.004;2022-10-16T14:36:18;98395.63;;;25.08;53.68
3260;BME280;22469;48.150;14.004;2022-10-16T14:39:04;98398.47;;;25.16;53.98
3260;BME280;22469;48.150;14.004;2022-10-16T14:41:41;98400.41;;;25.14;53.40
3260;BME280;22469;48.150;14.004;2022-10-16T14:44:12;98404.72;;;25.24;53.15
3260;BME280;22469;48.150;14.004;2022-10-16T14:46:41;98411.13;;;25.32;53.03
3260;BME280;22469;48.150;14.004;2022-10-16T14:51:38;98398.31;;;25.48;52.97
3260;BME280;22469;48.150;14.004;2022-10-16T14:54:09;98402.19;;;25.44;52.53
3260;BME280;22469;48.150;14.004;2022-10-16T14:56:55;98402.34;;;25.52;52.19
3260;BME280;22469;48.150;14.004;2022-10-16T14:59:36;98393.94;;;25.58;52.49
3260;BME280;22469;48.150;14.004;2022-10-16T15:04:48;98400.31;;;25.65;52.12
3260;BME280;22469;48.150;14.004;2022-10-16T15:07:16;98407.91;;;25.68;51.51
3260;BME280;22469;48.150;14.004;2022-10-16T15:09:43;98408.75;;;25.69;51.62
3260;BME280;22469;48.150;14.004;2022-10-16T15:12:15;98407.63;;;25.62;52.29
3260;BME280;22469;48.150;14.004;2022-10-16T15:14:43;98400.13;;;25.57;52.22
3260;BME280;22469;48.150;14.004;2022-10-16T15:17:10;98405.22;;;25.49;52.71
3260;BME280;22469;48.150;14.004;2022-10-16T15:19:38;98404.94;;;25.42;52.89